Saint Paul, MN (55168)

11:25 PM CST on January 24, 2015 (GMT -0600)
Mounds Park, East Metro | Change Station
CLOSE
Current Station
Personal Weather Station
Location: Saint Paul, MN
Elevation: 850 ft
Nearby Weather Stations

Elev 850 ft 44.95 °N, 93.06 °W | Updated 5 minutes ago

Overcast
Overcast
34.7 °F
Feels Like 35 °F
N
3.0
Wind Variable Wind from ENE
Gusts 6.0 mph

Today
High -- | Low -- °F
--% Chance of Precip.
Yesterday
High -- | Low -- °F
Precip. -- in
7:40 AM 5:08 PM
Waxing Crescent, 28% visible
Pressure 29.68 in
Visibility 8.0 miles
Clouds Overcast 4800 ft
Windchill 35 °F
Dew Point 28 °F
Humidity 75%
Rainfall -999.00 in
Snow Depth Not available.
UV 0 out of 12
Pollen .10 out of 12
Air Quality Not available.
Flu Activity Not available.
METAR KSTP 250453Z AUTO 04008G23KT 360V090 8SM OVC048 02/M01 A2967 RMK AO2 SLP051 T00171006

More Conditions Fewer Conditions

Pressure 29.68 in
Visibility 8.0 miles
Clouds Overcast 4800 ft
Windchill 35 °F
Dew Point 28 °F
Humidity 75%
Rainfall -999.00 in
Snow Depth Not available.
UV 0 out of 12
Pollen .10 out of 12
Air Quality Not available.
Flu Activity Not available.
METAR KSTP 250453Z AUTO 04008G23KT 360V090 8SM OVC048 02/M01 A2967 RMK AO2 SLP051 T00171006

More Conditions Fewer Conditions

10-Day Weather Forecast

Almanac

Astronomy

Jan. 24, 2015 Rise Set
Actual Time
Civil Twilight
Nautical Twilight
Astronomical Twilight
Moon
Length of Visible Light
Length of Day
Tomorrow will be .
, % of the Moon is Illuminated

Today's Extremes

State Highs State Lows

Community

WunderPhotos

Upload Photos

1,789,843 photos uploaded!

WunderBlogs® & News

Nearby

Air Quality

  Air Quality AQ Index Pollutant
Not available.

Snow Depth

Station Depth Elevation

Earthquake Activity

City Distance Mag. Time & Date
Minimum magnitude displayed is 2.5.

Coastal Water Temperatures

Place Temperature

Nearby Weather Stations